Terminal Aerodrome Forecast
Issued by NWS Fort Wayne, IN

Home | Current Version | Previous Version | Graphics & Text | Print | Product List | Glossary On
Versions: 1 2 3 4 5 6 7 8 9 10 11 12 13 14
000
FTUS43 KIWX 250500
TAFFWA
TAF
KFWA 250539Z 2506/2606 08013KT P6SM OVC050
     FM251100 08016G24KT 5SM -RA BR OVC025
     FM260200 06013KT P6SM SCT025 OVC040=

USA.gov is the U.S. government's official web portal to all federal, state and local government web resources and services.